Time;durP1;ratioP1;P1;durP2;ratioP2;P2;SDS_P1;SDS_P2;PMS_P1;PMS_P2;Temp;Humidity;BMP_temperature;BMP_pressure;BME280_temperature;BME280_humidity;BME280_pressure;Samples;Min_cycle;Max_cycle;Signal;HPM_P1;HPM_P2
2021/01/08 00:01:42;;;;;;;8.63;5.93;;;;;;;;;;5079994;28;20059;-75
2021/01/08 00:04:08;;;;;;;9.95;6.95;;;;;;;;;;5071724;28;20079;-75
2021/01/08 00:06:35;;;;;;;10.20;6.50;;;;;;;;;;5076343;28;20054;-75
2021/01/08 00:09:04;;;;;;;9.85;6.78;;;;;;;;;;5076216;28;20132;-74
2021/01/08 00:11:34;;;;;;;9.50;6.32;;;;;;;;;;5074503;28;20048;-74
2021/01/08 00:14:05;;;;;;;9.82;6.28;;;;;;;;;;5073070;28;20052;-74
2021/01/08 00:16:35;;;;;;;9.07;5.78;;;;;;;;;;5079522;28;20048;-74
2021/01/08 00:19:04;;;;;;;10.18;6.38;;;;;;;;;;5075389;28;20466;-75
2021/01/08 00:21:37;;;;;;;12.10;6.93;;;;;;;;;;5073699;28;20056;-74
2021/01/08 00:24:04;;;;;;;10.57;6.40;;;;;;;;;;5074141;28;20044;-74
2021/01/08 00:26:31;;;;;;;8.38;6.07;;;;;;;;;;5076200;28;20078;-74
2021/01/08 00:28:57;;;;;;;8.27;5.30;;;;;;;;;;5081117;28;20109;-75
2021/01/08 00:31:23;;;;;;;8.60;5.65;;;;;;;;;;5075468;28;20062;-74
2021/01/08 00:33:52;;;;;;;10.85;6.28;;;;;;;;;;5074955;28;20053;-75
2021/01/08 00:36:18;;;;;;;7.63;5.57;;;;;;;;;;5079969;28;20041;-74
2021/01/08 00:38:44;;;;;;;7.50;5.22;;;;;;;;;;5072864;28;20052;-74
2021/01/08 00:41:11;;;;;;;7.70;5.68;;;;;;;;;;5073754;28;20135;-74
2021/01/08 00:43:37;;;;;;;9.23;5.75;;;;;;;;;;5073991;28;20054;-74
2021/01/08 00:46:03;;;;;;;8.45;5.57;;;;;;;;;;5077282;28;20576;-74
2021/01/08 00:48:29;;;;;;;11.10;5.82;;;;;;;;;;5080330;28;20139;-75
2021/01/08 00:51:01;;;;;;;8.18;5.60;;;;;;;;;;5074454;28;20048;-75
2021/01/08 00:53:28;;;;;;;9.27;5.88;;;;;;;;;;5075013;28;20124;-76
2021/01/08 00:55:54;;;;;;;7.65;4.97;;;;;;;;;;5074951;28;20048;-76
2021/01/08 00:58:22;;;;;;;7.18;5.60;;;;;;;;;;5081426;28;20131;-76
2021/01/08 01:00:49;;;;;;;7.97;5.53;;;;;;;;;;5075512;28;20484;-76
2021/01/08 01:03:16;;;;;;;6.68;4.97;;;;;;;;;;5082167;28;20075;-75
2021/01/08 01:05:42;;;;;;;8.82;5.30;;;;;;;;;;5077309;28;20055;-75
2021/01/08 01:08:08;;;;;;;9.43;5.30;;;;;;;;;;5077820;28;20060;-75
2021/01/08 01:10:34;;;;;;;6.50;4.38;;;;;;;;;;5083980;28;20076;-75
2021/01/08 01:13:03;;;;;;;9.73;5.43;;;;;;;;;;5074489;28;20040;-75
2021/01/08 01:15:31;;;;;;;5.90;4.57;;;;;;;;;;5075657;28;22215;-75
2021/01/08 01:17:57;;;;;;;6.95;4.50;;;;;;;;;;5082152;28;20131;-75
2021/01/08 01:20:23;;;;;;;7.72;4.45;;;;;;;;;;5074069;28;20464;-76
2021/01/08 01:23:02;;;;;;;7.03;5.05;;;;;;;;;;5079852;28;20126;-76
2021/01/08 01:25:28;;;;;;;8.93;5.00;;;;;;;;;;5075208;28;20404;-75
2021/01/08 01:27:54;;;;;;;6.50;4.53;;;;;;;;;;5073219;28;20083;-76
2021/01/08 01:30:20;;;;;;;5.57;4.05;;;;;;;;;;5073316;28;20048;-75
2021/01/08 01:32:46;;;;;;;5.97;4.22;;;;;;;;;;5076888;28;20048;-76
2021/01/08 01:35:13;;;;;;;7.55;4.60;;;;;;;;;;5081388;28;20066;-75
2021/01/08 01:37:39;;;;;;;6.55;4.55;;;;;;;;;;5083399;28;20584;-76
2021/01/08 01:40:06;;;;;;;5.65;4.00;;;;;;;;;;5079157;28;20113;-75
2021/01/08 01:42:32;;;;;;;6.60;4.22;;;;;;;;;;5072483;28;20055;-75
2021/01/08 01:45:00;;;;;;;9.23;4.70;;;;;;;;;;5086201;28;20708;-74
2021/01/08 01:47:27;;;;;;;6.07;4.20;;;;;;;;;;5076229;28;20079;-77
2021/01/08 01:49:54;;;;;;;7.63;3.90;;;;;;;;;;5076745;28;20131;-77
2021/01/08 01:52:20;;;;;;;6.22;4.35;;;;;;;;;;5072318;28;20044;-75
2021/01/08 01:54:46;;;;;;;8.75;4.43;;;;;;;;;;5080136;28;20682;-75
2021/01/08 01:57:12;;;;;;;6.63;4.15;;;;;;;;;;5079379;28;20044;-74
2021/01/08 01:59:38;;;;;;;6.30;4.05;;;;;;;;;;5084336;28;20044;-74
2021/01/08 02:02:12;;;;;;;6.25;4.00;;;;;;;;;;5081804;28;20109;-74
2021/01/08 02:04:39;;;;;;;6.80;3.80;;;;;;;;;;5076554;28;20122;-74
2021/01/08 02:07:09;;;;;;;5.80;3.90;;;;;;;;;;5079912;28;20504;-74
2021/01/08 02:09:35;;;;;;;7.70;4.40;;;;;;;;;;5076375;28;20132;-73
2021/01/08 02:12:02;;;;;;;6.60;4.47;;;;;;;;;;5071560;28;20409;-73
2021/01/08 02:14:29;;;;;;;5.72;3.63;;;;;;;;;;5073505;28;20060;-74
2021/01/08 02:16:58;;;;;;;6.32;4.00;;;;;;;;;;5075089;28;20067;-74
2021/01/08 02:19:31;;;;;;;6.97;4.43;;;;;;;;;;5072869;28;20059;-75
2021/01/08 02:22:09;;;;;;;6.25;3.80;;;;;;;;;;5074418;28;20048;-75
2021/01/08 02:24:40;;;;;;;6.82;3.92;;;;;;;;;;5083149;28;20044;-75
2021/01/08 02:27:07;;;;;;;5.78;4.07;;;;;;;;;;5073442;28;20048;-75
2021/01/08 02:29:33;;;;;;;5.90;3.70;;;;;;;;;;5074796;28;20053;-76
2021/01/08 02:31:59;;;;;;;6.05;4.00;;;;;;;;;;5079876;28;20138;-77
2021/01/08 02:34:26;;;;;;;5.25;4.05;;;;;;;;;;5082703;28;20094;-77
2021/01/08 02:36:52;;;;;;;5.20;3.92;;;;;;;;;;5078634;28;20048;-77
2021/01/08 02:39:19;;;;;;;4.43;3.35;;;;;;;;;;5076570;28;20044;-76
2021/01/08 02:41:50;;;;;;;5.30;3.72;;;;;;;;;;5077197;28;20079;-76
2021/01/08 02:44:16;;;;;;;5.18;3.65;;;;;;;;;;5082276;28;20050;-75
2021/01/08 02:46:43;;;;;;;5.63;3.50;;;;;;;;;;5078416;28;20408;-75
2021/01/08 02:49:09;;;;;;;4.90;3.40;;;;;;;;;;5073408;28;20036;-75
2021/01/08 02:51:38;;;;;;;4.90;3.92;;;;;;;;;;5084757;28;20057;-75
2021/01/08 02:54:04;;;;;;;4.68;3.30;;;;;;;;;;5078302;28;20470;-76
2021/01/08 02:56:44;;;;;;;5.30;3.30;;;;;;;;;;5084319;28;20055;-76
2021/01/08 02:59:14;;;;;;;5.05;3.47;;;;;;;;;;5079161;28;20127;-75
2021/01/08 03:01:41;;;;;;;4.53;3.20;;;;;;;;;;5076739;28;20059;-75
2021/01/08 03:04:08;;;;;;;6.53;3.05;;;;;;;;;;5075919;28;20052;-76
2021/01/08 03:06:39;;;;;;;5.33;3.00;;;;;;;;;;5083546;28;20503;-76
2021/01/08 03:09:08;;;;;;;4.07;3.03;;;;;;;;;;5079268;28;20045;-77
2021/01/08 03:11:34;;;;;;;5.38;3.45;;;;;;;;;;5077492;28;20045;-77
2021/01/08 03:14:06;;;;;;;4.45;2.58;;;;;;;;;;5078943;28;20048;-76
2021/01/08 03:16:34;;;;;;;5.65;3.42;;;;;;;;;;5081026;28;20048;-76
2021/01/08 03:19:01;;;;;;;4.57;3.03;;;;;;;;;;5079065;28;20052;-78
2021/01/08 03:21:27;;;;;;;4.32;2.85;;;;;;;;;;5083021;28;20052;-75
2021/01/08 03:23:53;;;;;;;5.70;2.83;;;;;;;;;;5085700;28;20124;-74
2021/01/08 03:26:19;;;;;;;5.38;3.47;;;;;;;;;;5078523;28;20434;-76
2021/01/08 03:28:48;;;;;;;4.00;2.70;;;;;;;;;;5081402;28;20049;-78
2021/01/08 03:31:14;;;;;;;4.68;2.90;;;;;;;;;;5077505;28;20051;-78
2021/01/08 03:33:40;;;;;;;4.35;3.35;;;;;;;;;;5082516;28;20075;-78
2021/01/08 03:36:06;;;;;;;5.45;3.35;;;;;;;;;;5079661;28;20044;-77
2021/01/08 03:38:32;;;;;;;4.35;3.08;;;;;;;;;;5082611;28;20544;-77
2021/01/08 03:40:59;;;;;;;4.50;3.00;;;;;;;;;;5079082;28;20048;-78
2021/01/08 03:43:25;;;;;;;4.30;3.13;;;;;;;;;;5081220;28;20397;-77
2021/01/08 03:45:52;;;;;;;4.93;2.70;;;;;;;;;;5079055;28;20052;-77
2021/01/08 03:48:20;;;;;;;5.15;3.13;;;;;;;;;;5079709;28;20052;-77
2021/01/08 03:50:46;;;;;;;4.30;2.70;;;;;;;;;;5079303;28;20060;-77
2021/01/08 03:53:12;;;;;;;5.13;2.80;;;;;;;;;;5073898;28;20045;-76
2021/01/08 03:55:38;;;;;;;3.67;2.50;;;;;;;;;;5077164;28;20056;-76
2021/01/08 03:58:05;;;;;;;3.55;2.60;;;;;;;;;;5079317;28;20048;-75
2021/01/08 04:00:33;;;;;;;3.58;2.42;;;;;;;;;;5083378;28;20472;-76
2021/01/08 04:02:59;;;;;;;3.40;2.33;;;;;;;;;;5080420;28;20044;-75
2021/01/08 04:05:26;;;;;;;3.90;2.33;;;;;;;;;;5079017;28;20091;-76
2021/01/08 04:07:55;;;;;;;3.65;2.78;;;;;;;;;;5080007;28;20478;-75
2021/01/08 04:10:21;;;;;;;3.67;2.70;;;;;;;;;;5078999;28;20490;-77
2021/01/08 04:12:47;;;;;;;4.07;2.72;;;;;;;;;;5087613;28;20052;-73
2021/01/08 04:15:13;;;;;;;3.67;2.42;;;;;;;;;;5080538;28;20127;-75
2021/01/08 04:17:40;;;;;;;3.28;2.40;;;;;;;;;;5080920;28;20053;-75
2021/01/08 04:20:06;;;;;;;6.13;2.90;;;;;;;;;;5074782;28;20058;-76
2021/01/08 04:22:32;;;;;;;3.40;2.45;;;;;;;;;;5074889;28;20055;-75
2021/01/08 04:24:58;;;;;;;3.47;2.60;;;;;;;;;;5078582;28;20045;-76
2021/01/08 04:27:24;;;;;;;3.80;2.42;;;;;;;;;;5076788;28;20056;-76
2021/01/08 04:29:50;;;;;;;3.90;2.67;;;;;;;;;;5079739;28;20036;-75
2021/01/08 04:32:16;;;;;;;4.85;2.63;;;;;;;;;;5082528;28;20463;-75
2021/01/08 04:34:43;;;;;;;3.63;2.42;;;;;;;;;;5075977;28;20457;-75
2021/01/08 04:37:10;;;;;;;3.25;2.10;;;;;;;;;;5077915;28;20049;-74
2021/01/08 04:39:36;;;;;;;3.22;1.98;;;;;;;;;;5076689;28;20049;-74
2021/01/08 04:42:02;;;;;;;2.75;2.08;;;;;;;;;;5079047;28;20050;-75
2021/01/08 04:44:28;;;;;;;3.75;2.55;;;;;;;;;;5079038;28;20048;-75
2021/01/08 04:46:54;;;;;;;4.40;2.50;;;;;;;;;;5080823;28;20055;-75
2021/01/08 04:49:21;;;;;;;3.00;1.90;;;;;;;;;;5079618;28;20513;-77
2021/01/08 04:51:47;;;;;;;2.55;1.70;;;;;;;;;;5080162;28;20048;-76
2021/01/08 04:54:14;;;;;;;6.75;2.55;;;;;;;;;;5080788;28;20545;-76
2021/01/08 04:56:42;;;;;;;4.57;2.30;;;;;;;;;;5075387;28;20055;-75
2021/01/08 04:59:08;;;;;;;3.47;2.33;;;;;;;;;;5076522;28;20041;-75
2021/01/08 05:01:35;;;;;;;2.47;1.80;;;;;;;;;;5081730;28;20080;-75
2021/01/08 05:04:02;;;;;;;4.82;2.15;;;;;;;;;;5077587;28;20044;-75
2021/01/08 05:06:28;;;;;;;4.50;2.50;;;;;;;;;;5073496;28;20060;-76
2021/01/08 05:08:54;;;;;;;2.72;2.00;;;;;;;;;;5076087;28;20048;-76
2021/01/08 05:11:26;;;;;;;4.10;2.10;;;;;;;;;;5075162;28;20045;-79
2021/01/08 05:13:53;;;;;;;3.75;2.38;;;;;;;;;;5072261;28;20682;-76
2021/01/08 05:16:20;;;;;;;3.15;2.05;;;;;;;;;;5075927;28;20051;-78
2021/01/08 05:18:47;;;;;;;2.90;2.10;;;;;;;;;;5079099;28;20585;-78
2021/01/08 05:21:15;;;;;;;3.50;2.30;;;;;;;;;;5077733;28;20150;-77
2021/01/08 05:23:41;;;;;;;3.45;2.35;;;;;;;;;;5078805;28;20132;-77
2021/01/08 05:26:10;;;;;;;2.40;1.90;;;;;;;;;;5074234;28;20047;-77
2021/01/08 05:28:36;;;;;;;4.78;2.17;;;;;;;;;;5082699;28;20485;-76
2021/01/08 05:31:07;;;;;;;3.10;1.92;;;;;;;;;;5084295;28;20093;-76
2021/01/08 05:33:34;;;;;;;3.58;2.10;;;;;;;;;;5072046;28;20383;-77
2021/01/08 05:36:00;;;;;;;4.20;2.20;;;;;;;;;;5074173;28;20054;-77
2021/01/08 05:38:27;;;;;;;3.35;2.83;;;;;;;;;;5081195;28;20053;-75
2021/01/08 05:41:00;;;;;;;3.47;1.80;;;;;;;;;;5078493;28;20127;-76
2021/01/08 05:43:27;;;;;;;2.80;1.58;;;;;;;;;;5078165;28;20076;-76
2021/01/08 05:46:05;;;;;;;3.38;1.90;;;;;;;;;;5073953;28;20482;-76
2021/01/08 05:48:32;;;;;;;3.50;2.05;;;;;;;;;;5075819;28;20439;-76
2021/01/08 05:51:00;;;;;;;2.58;1.90;;;;;;;;;;5079457;28;20127;-77
2021/01/08 05:53:26;;;;;;;3.00;2.28;;;;;;;;;;5074692;28;20486;-77
2021/01/08 05:55:52;;;;;;;2.83;1.80;;;;;;;;;;5079047;28;20048;-77
2021/01/08 05:58:21;;;;;;;3.58;2.03;;;;;;;;;;5080959;28;21033;-77
2021/01/08 06:00:57;;;;;;;4.60;2.47;;;;;;;;;;5079623;28;20198;-77
2021/01/08 06:03:24;;;;;;;3.47;2.00;;;;;;;;;;5074173;28;20113;-77
2021/01/08 06:05:54;;;;;;;3.47;1.60;;;;;;;;;;5080702;28;20414;-77
2021/01/08 06:08:26;;;;;;;3.30;2.20;;;;;;;;;;5079713;28;20040;-77
2021/01/08 06:10:53;;;;;;;2.13;1.50;;;;;;;;;;5076393;28;20070;-78
2021/01/08 06:13:21;;;;;;;2.15;1.60;;;;;;;;;;5071916;28;20127;-76
2021/01/08 06:15:47;;;;;;;3.13;1.83;;;;;;;;;;5081401;28;20127;-77
2021/01/08 06:18:14;;;;;;;3.25;2.05;;;;;;;;;;5077098;28;20509;-76
2021/01/08 06:20:41;;;;;;;2.95;1.55;;;;;;;;;;5083434;28;20049;-77
2021/01/08 06:23:07;;;;;;;3.03;1.85;;;;;;;;;;5079528;28;20485;-78
2021/01/08 06:25:34;;;;;;;3.33;1.73;;;;;;;;;;5071457;28;20454;-76
2021/01/08 06:28:03;;;;;;;2.22;1.50;;;;;;;;;;5077574;28;20494;-76
2021/01/08 06:30:32;;;;;;;2.33;1.40;;;;;;;;;;5088683;28;20046;-76
2021/01/08 06:33:03;;;;;;;3.15;1.67;;;;;;;;;;5083553;28;20044;-75
2021/01/08 06:35:34;;;;;;;2.60;1.23;;;;;;;;;;5076346;28;20102;-75
2021/01/08 06:38:01;;;;;;;5.47;1.92;;;;;;;;;;5081603;28;20959;-77
2021/01/08 06:40:39;;;;;;;3.00;1.75;;;;;;;;;;5076377;28;20071;-80
2021/01/08 06:43:08;;;;;;;2.47;1.60;;;;;;;;;;5081880;28;20452;-80
2021/01/08 06:45:34;;;;;;;1.92;1.40;;;;;;;;;;5083754;28;20048;-81
2021/01/08 06:48:01;;;;;;;3.13;1.75;;;;;;;;;;5088927;28;20135;-77
2021/01/08 06:50:27;;;;;;;3.20;1.60;;;;;;;;;;5083663;28;20444;-79
2021/01/08 06:52:56;;;;;;;2.58;1.70;;;;;;;;;;5086420;28;20482;-74
2021/01/08 06:55:23;;;;;;;2.08;1.48;;;;;;;;;;5085907;28;20058;-74
2021/01/08 06:57:55;;;;;;;3.55;1.70;;;;;;;;;;5078813;28;20048;-73
2021/01/08 07:00:25;;;;;;;2.38;1.55;;;;;;;;;;5084813;28;20058;-74
2021/01/08 07:02:52;;;;;;;;;;;;;;;;;;5080696;28;20054;-74
2021/01/08 07:05:21;;;;;;;4.50;2.15;;;;;;;;;;5079466;28;19926;-73
2021/01/08 07:07:49;;;;;;;5.18;2.45;;;;;;;;;;5083985;28;20051;-73
2021/01/08 07:10:16;;;;;;;6.55;2.67;;;;;;;;;;5081184;28;20055;-74
2021/01/08 07:12:43;;;;;;;4.32;2.55;;;;;;;;;;5075597;28;20044;-74
2021/01/08 07:15:13;;;;;;;4.32;2.58;;;;;;;;;;5079330;28;20075;-73
2021/01/08 07:17:40;;;;;;;8.13;2.50;;;;;;;;;;5080685;28;20083;-74
2021/01/08 07:20:08;;;;;;;3.92;2.28;;;;;;;;;;5079272;28;20052;-71
2021/01/08 07:22:36;;;;;;;5.15;2.60;;;;;;;;;;5083204;28;20494;-74
2021/01/08 07:25:05;;;;;;;5.38;2.53;;;;;;;;;;5076064;28;20078;-74
2021/01/08 07:27:32;;;;;;;4.55;2.40;;;;;;;;;;5077494;28;20075;-74
2021/01/08 07:30:00;;;;;;;4.53;2.22;;;;;;;;;;5078708;28;20139;-72
2021/01/08 07:32:42;;;;;;;3.95;2.67;;;;;;;;;;5079159;28;20051;-71
2021/01/08 07:35:19;;;;;;;5.70;2.65;;;;;;;;;;5077969;28;20475;-73
2021/01/08 07:37:51;;;;;;;7.78;4.35;;;;;;;;;;5079263;28;20512;-71
2021/01/08 07:40:18;;;;;;;6.50;3.08;;;;;;;;;;5079581;28;20052;-73
2021/01/08 07:43:03;;;;;;;5.10;2.72;;;;;;;;;;5077898;28;20045;-72
2021/01/08 07:45:49;;;;;;;5.68;2.55;;;;;;;;;;5078499;28;20041;-72
2021/01/08 07:48:16;;;;;;;5.50;2.60;;;;;;;;;;5078417;28;20044;-74
2021/01/08 07:50:52;;;;;;;5.65;2.47;;;;;;;;;;5071827;28;20036;-73
2021/01/08 07:53:40;;;;;;;21.13;4.63;;;;;;;;;;5076300;28;21865;-74
2021/01/08 07:56:17;;;;;;;12.82;4.13;;;;;;;;;;5083578;28;20048;-74
2021/01/08 07:58:44;;;;;;;10.98;5.30;;;;;;;;;;5080790;28;20044;-74
2021/01/08 08:01:11;;;;;;;9.88;5.32;;;;;;;;;;5073297;28;20044;-75
2021/01/08 08:03:40;;;;;;;13.73;5.18;;;;;;;;;;5077869;28;20076;-74
2021/01/08 08:06:10;;;;;;;9.32;4.28;;;;;;;;;;5076160;28;20059;-73
2021/01/08 08:08:41;;;;;;;9.00;4.45;;;;;;;;;;5076859;28;20056;-73
2021/01/08 08:11:08;;;;;;;9.55;4.40;;;;;;;;;;5078763;28;20079;-73
2021/01/08 08:13:35;;;;;;;11.00;5.10;;;;;;;;;;5075014;28;20041;-73
2021/01/08 08:16:02;;;;;;;11.65;5.20;;;;;;;;;;5076005;28;20044;-74
2021/01/08 08:18:28;;;;;;;9.45;4.68;;;;;;;;;;5073872;28;20165;-73
2021/01/08 08:21:16;;;;;;;11.95;5.22;;;;;;;;;;5072559;28;20122;-74
2021/01/08 08:23:52;;;;;;;8.82;4.10;;;;;;;;;;5072724;28;20589;-73
2021/01/08 08:26:19;;;;;;;11.82;5.43;;;;;;;;;;5072541;28;20048;-73
2021/01/08 08:28:56;;;;;;;8.40;4.05;;;;;;;;;;5077783;28;20052;-73
2021/01/08 08:31:26;;;;;;;9.73;4.53;;;;;;;;;;5077332;28;20060;-74
2021/01/08 08:33:52;;;;;;;11.90;5.37;;;;;;;;;;5072515;28;20043;-73
2021/01/08 08:36:22;;;;;;;10.20;4.07;;;;;;;;;;5072284;28;20052;-73
2021/01/08 08:39:04;;;;;;;10.07;4.40;;;;;;;;;;5071802;28;20406;-73
2021/01/08 08:41:31;;;;;;;6.22;3.97;;;;;;;;;;5075312;28;20501;-74
2021/01/08 08:44:07;;;;;;;11.23;4.13;;;;;;;;;;5072152;28;20061;-73
2021/01/08 08:46:42;;;;;;;8.02;4.03;;;;;;;;;;5073399;28;20310;-73
2021/01/08 08:49:09;;;;;;;7.82;4.18;;;;;;;;;;5074858;28;20041;-72
2021/01/08 08:51:39;;;;;;;7.47;4.43;;;;;;;;;;5071962;28;20047;-73
2021/01/08 08:54:05;;;;;;;6.60;3.70;;;;;;;;;;5071976;28;20045;-73
2021/01/08 08:56:31;;;;;;;10.90;4.10;;;;;;;;;;5071734;28;20055;-73
2021/01/08 08:58:57;;;;;;;7.93;4.40;;;;;;;;;;5077987;28;20504;-73
2021/01/08 09:01:36;;;;;;;8.52;3.95;;;;;;;;;;5073047;28;20505;-75
2021/01/08 09:04:03;;;;;;;8.75;4.22;;;;;;;;;;5074043;28;20040;-74
2021/01/08 09:06:37;;;;;;;6.15;3.53;;;;;;;;;;5071478;28;20147;-73
2021/01/08 09:09:10;;;;;;;8.45;3.90;;;;;;;;;;5078500;28;20040;-73
2021/01/08 09:11:38;;;;;;;7.45;3.83;;;;;;;;;;5076594;28;20048;-74
2021/01/08 09:14:13;;;;;;;11.73;4.18;;;;;;;;;;5079559;28;20086;-73
2021/01/08 09:16:39;;;;;;;5.93;3.50;;;;;;;;;;5075389;28;20101;-73
2021/01/08 09:19:34;;;;;;;9.75;3.42;;;;;;;;;;5082344;28;20568;-74
2021/01/08 09:22:06;;;;;;;7.53;4.10;;;;;;;;;;5056593;28;20147;-73
2021/01/08 09:24:33;;;;;;;6.00;3.03;;;;;;;;;;5078485;28;20127;-74
2021/01/08 09:27:00;;;;;;;5.43;3.15;;;;;;;;;;5080333;28;20553;-74
2021/01/08 09:29:28;;;;;;;4.78;3.05;;;;;;;;;;5071632;28;20491;-74
2021/01/08 09:31:56;;;;;;;6.82;3.13;;;;;;;;;;5080295;28;20472;-73
2021/01/08 09:34:23;;;;;;;7.43;2.92;;;;;;;;;;5071264;28;20383;-74
2021/01/08 09:36:52;;;;;;;5.70;3.38;;;;;;;;;;5072057;28;20055;-74
2021/01/08 09:39:19;;;;;;;5.38;3.13;;;;;;;;;;5077597;28;20140;-74
2021/01/08 09:41:54;;;;;;;4.63;3.50;;;;;;;;;;5071244;28;20136;-72
2021/01/08 09:44:20;;;;;;;3.60;2.47;;;;;;;;;;5071112;28;20037;-74
2021/01/08 09:46:50;;;;;;;5.35;2.80;;;;;;;;;;5071432;28;20048;-74
2021/01/08 09:49:16;;;;;;;5.38;2.70;;;;;;;;;;5071433;28;20047;-74
2021/01/08 09:51:43;;;;;;;6.25;2.50;;;;;;;;;;5070941;28;20048;-74
2021/01/08 09:54:10;;;;;;;5.20;3.35;;;;;;;;;;5076659;28;20127;-74
2021/01/08 09:56:36;;;;;;;7.45;2.53;;;;;;;;;;5074319;28;20136;-74
2021/01/08 09:59:17;;;;;;;4.93;2.83;;;;;;;;;;5071225;28;20079;-74
2021/01/08 10:04:26;;;;;;;5.10;2.90;;;;;;;;;;5077565;28;20044;-75
2021/01/08 10:06:54;;;;;;;5.63;2.72;;;;;;;;;;5076293;28;20125;-74
2021/01/08 10:09:22;;;;;;;3.85;2.67;;;;;;;;;;5075850;28;20048;-74
2021/01/08 10:12:00;;;;;;;6.57;2.28;;;;;;;;;;5072295;28;20048;-74
2021/01/08 10:14:30;;;;;;;5.05;2.75;;;;;;;;;;5071058;28;20056;-74
2021/01/08 10:17:07;;;;;;;7.50;3.13;;;;;;;;;;5074434;28;20052;-73
2021/01/08 10:19:34;;;;;;;4.18;2.55;;;;;;;;;;5070943;28;20103;-74
2021/01/08 10:22:04;;;;;;;4.35;2.78;;;;;;;;;;5079698;28;20049;-75
2021/01/08 10:24:48;;;;;;;6.28;2.78;;;;;;;;;;5070714;28;20086;-74
2021/01/08 10:27:14;;;;;;;4.47;2.10;;;;;;;;;;5073550;28;20049;-74
2021/01/08 10:29:40;;;;;;;4.78;2.72;;;;;;;;;;5077919;28;20067;-74
2021/01/08 10:32:10;;;;;;;5.60;2.70;;;;;;;;;;5075032;28;20178;-74
2021/01/08 10:34:41;;;;;;;5.07;2.38;;;;;;;;;;5070951;28;20041;-75
2021/01/08 10:37:18;;;;;;;5.13;2.30;;;;;;;;;;5070884;28;20225;-74
2021/01/08 10:39:47;;;;;;;4.20;3.10;;;;;;;;;;5070243;28;20053;-74
2021/01/08 10:42:14;;;;;;;3.75;2.05;;;;;;;;;;5070123;28;20105;-74
2021/01/08 10:44:43;;;;;;;4.40;2.58;;;;;;;;;;5070793;28;20080;-74
2021/01/08 10:47:09;;;;;;;3.95;2.30;;;;;;;;;;5074671;28;20041;-73
2021/01/08 10:49:54;;;;;;;3.95;2.55;;;;;;;;;;5070608;28;20555;-74
2021/01/08 10:52:21;;;;;;;3.92;2.42;;;;;;;;;;5070183;28;20254;-74
2021/01/08 10:54:47;;;;;;;4.40;2.63;;;;;;;;;;5083487;28;20130;-73
2021/01/08 10:57:13;;;;;;;4.30;2.47;;;;;;;;;;5076855;28;20051;-74
2021/01/08 10:59:40;;;;;;;4.43;2.30;;;;;;;;;;5070533;28;20135;-74
2021/01/08 11:02:06;;;;;;;3.97;2.28;;;;;;;;;;5071435;28;20409;-74
2021/01/08 11:04:40;;;;;;;4.95;2.67;;;;;;;;;;5075003;28;20131;-74
2021/01/08 11:07:10;;;;;;;7.43;2.53;;;;;;;;;;5083171;28;20123;-74
2021/01/08 11:09:37;;;;;;;3.50;2.08;;;;;;;;;;5070646;28;20055;-74
2021/01/08 11:12:08;;;;;;;4.03;2.42;;;;;;;;;;5070601;28;20076;-74
2021/01/08 11:14:34;;;;;;;3.30;2.28;;;;;;;;;;5073977;28;20044;-73
2021/01/08 11:17:04;;;;;;;5.47;3.10;;;;;;;;;;5074666;28;20059;-73
2021/01/08 11:19:30;;;;;;;4.50;2.70;;;;;;;;;;5081077;28;20155;-74
2021/01/08 11:21:58;;;;;;;4.43;2.75;;;;;;;;;;5079919;28;20056;-73
2021/01/08 11:24:24;;;;;;;4.40;3.03;;;;;;;;;;5073830;28;20059;-74
2021/01/08 11:26:59;;;;;;;5.90;2.75;;;;;;;;;;5086843;28;20101;-74
2021/01/08 11:29:25;;;;;;;3.92;2.72;;;;;;;;;;5077323;28;20566;-74
2021/01/08 11:31:51;;;;;;;4.22;2.47;;;;;;;;;;5078838;28;20136;-74
2021/01/08 11:34:18;;;;;;;6.35;3.00;;;;;;;;;;5083185;28;20071;-73
2021/01/08 11:36:46;;;;;;;4.20;2.50;;;;;;;;;;5076900;28;20052;-74
2021/01/08 11:39:13;;;;;;;3.63;2.38;;;;;;;;;;5078823;28;20079;-74
2021/01/08 11:41:39;;;;;;;3.85;2.50;;;;;;;;;;5073134;28;20063;-74
2021/01/08 11:44:06;;;;;;;5.20;2.72;;;;;;;;;;5073608;28;20041;-73
2021/01/08 11:46:32;;;;;;;5.22;2.70;;;;;;;;;;5073130;28;20049;-73
2021/01/08 11:48:59;;;;;;;4.75;2.50;;;;;;;;;;5073003;28;20044;-74
2021/01/08 11:51:25;;;;;;;4.32;2.53;;;;;;;;;;5075542;28;20102;-73
2021/01/08 11:53:54;;;;;;;4.55;2.38;;;;;;;;;;5075057;28;20106;-73
2021/01/08 11:56:29;;;;;;;4.20;2.58;;;;;;;;;;5074823;28;20048;-74
2021/01/08 11:58:55;;;;;;;4.57;2.80;;;;;;;;;;5085384;28;20132;-73
2021/01/08 12:01:25;;;;;;;5.78;2.58;;;;;;;;;;5075936;28;20131;-73
2021/01/08 12:03:52;;;;;;;3.80;2.63;;;;;;;;;;5074928;28;20045;-74
2021/01/08 12:06:23;;;;;;;4.68;2.33;;;;;;;;;;5072598;28;20178;-74
2021/01/08 12:08:49;;;;;;;5.72;2.05;;;;;;;;;;5074116;28;20127;-73
2021/01/08 12:11:16;;;;;;;3.83;2.20;;;;;;;;;;5086465;28;20044;-73
2021/01/08 12:13:42;;;;;;;3.33;2.03;;;;;;;;;;5073554;28;20136;-73
2021/01/08 12:16:09;;;;;;;4.45;2.72;;;;;;;;;;5078091;28;20040;-73
2021/01/08 12:18:36;;;;;;;4.88;2.22;;;;;;;;;;5078352;28;20083;-74
2021/01/08 12:21:04;;;;;;;4.22;2.63;;;;;;;;;;5072634;28;20048;-74
2021/01/08 12:23:30;;;;;;;3.33;2.30;;;;;;;;;;5079615;28;20045;-73
2021/01/08 12:25:57;;;;;;;3.58;1.80;;;;;;;;;;5078673;28;20052;-74
2021/01/08 12:28:26;;;;;;;3.78;2.30;;;;;;;;;;5080602;28;20079;-75
2021/01/08 12:30:52;;;;;;;3.17;2.35;;;;;;;;;;5072950;28;20041;-75
2021/01/08 12:33:18;;;;;;;3.83;2.35;;;;;;;;;;5072543;28;20091;-73
2021/01/08 12:35:45;;;;;;;2.78;1.77;;;;;;;;;;5072097;28;20044;-75
2021/01/08 12:38:11;;;;;;;3.53;2.17;;;;;;;;;;5072219;28;20044;-73
2021/01/08 12:40:37;;;;;;;4.10;2.50;;;;;;;;;;5073663;28;20040;-73
2021/01/08 12:43:20;;;;;;;3.22;1.98;;;;;;;;;;5075500;28;20047;-70
2021/01/08 12:45:46;;;;;;;3.50;1.92;;;;;;;;;;5080744;28;20474;-70
2021/01/08 12:48:16;;;;;;;2.95;2.10;;;;;;;;;;5079173;28;20052;-71
2021/01/08 12:50:42;;;;;;;3.47;2.30;;;;;;;;;;5076208;28;20044;-70
2021/01/08 12:53:08;;;;;;;4.20;2.42;;;;;;;;;;5076405;28;20091;-71
2021/01/08 12:55:34;;;;;;;4.63;2.33;;;;;;;;;;5082391;28;20065;-70
2021/01/08 12:58:00;;;;;;;4.55;2.75;;;;;;;;;;5074519;28;20123;-72
2021/01/08 13:00:27;;;;;;;3.90;2.40;;;;;;;;;;5077544;28;20055;-72
2021/01/08 13:02:53;;;;;;;3.67;3.15;;;;;;;;;;5077473;28;20094;-71
2021/01/08 13:05:21;;;;;;;3.90;2.17;;;;;;;;;;5078417;28;20141;-72
2021/01/08 13:07:47;;;;;;;3.55;2.28;;;;;;;;;;5081059;28;20044;-71
2021/01/08 13:10:13;;;;;;;3.25;1.98;;;;;;;;;;5071422;28;20048;-70
2021/01/08 13:12:39;;;;;;;3.60;2.08;;;;;;;;;;5080801;28;20051;-71
2021/01/08 13:15:06;;;;;;;4.85;2.80;;;;;;;;;;5076065;28;20577;-71
2021/01/08 13:17:32;;;;;;;3.67;2.20;;;;;;;;;;5080074;28;20477;-71
2021/01/08 13:20:00;;;;;;;4.68;2.25;;;;;;;;;;5077392;28;20036;-70
2021/01/08 13:22:26;;;;;;;3.22;2.00;;;;;;;;;;5080388;28;20067;-71
2021/01/08 13:24:53;;;;;;;3.45;2.08;;;;;;;;;;5070937;28;20055;-73
2021/01/08 13:27:19;;;;;;;3.03;2.08;;;;;;;;;;5076239;28;20129;-72
2021/01/08 13:29:45;;;;;;;2.97;2.05;;;;;;;;;;5072551;28;20068;-73
2021/01/08 13:32:11;;;;;;;3.53;2.42;;;;;;;;;;5076255;28;20502;-72
2021/01/08 13:34:40;;;;;;;4.53;2.70;;;;;;;;;;5074739;28;20422;-72
2021/01/08 13:37:09;;;;;;;2.92;2.10;;;;;;;;;;5077363;28;20428;-73
2021/01/08 13:39:37;;;;;;;6.28;2.60;;;;;;;;;;5071718;28;20048;-73
2021/01/08 13:42:08;;;;;;;3.65;2.08;;;;;;;;;;5079089;28;20101;-72
2021/01/08 13:44:35;;;;;;;4.10;2.22;;;;;;;;;;5071943;28;20048;-73
2021/01/08 13:47:05;;;;;;;4.38;2.55;;;;;;;;;;5070712;28;20053;-73
2021/01/08 13:49:35;;;;;;;3.58;1.90;;;;;;;;;;5076976;28;20451;-73
2021/01/08 13:52:03;;;;;;;4.60;2.30;;;;;;;;;;5077931;28;20040;-73
2021/01/08 13:54:30;;;;;;;3.97;2.28;;;;;;;;;;5072330;28;20468;-74
2021/01/08 13:56:58;;;;;;;3.67;2.03;;;;;;;;;;5071323;28;20422;-73
2021/01/08 13:59:24;;;;;;;3.35;2.20;;;;;;;;;;5071097;28;20052;-73
2021/01/08 14:01:54;;;;;;;2.95;1.83;;;;;;;;;;5076408;28;20067;-73
2021/01/08 14:04:20;;;;;;;4.38;2.55;;;;;;;;;;5085032;28;20127;-73
2021/01/08 14:06:48;;;;;;;3.20;2.00;;;;;;;;;;5070622;28;20147;-73
2021/01/08 14:09:15;;;;;;;3.92;2.22;;;;;;;;;;5072997;28;20041;-73
2021/01/08 14:11:41;;;;;;;3.78;2.40;;;;;;;;;;5082201;28;20081;-75
2021/01/08 14:14:08;;;;;;;3.25;1.88;;;;;;;;;;5070770;28;20099;-73
2021/01/08 14:16:40;;;;;;;3.15;1.88;;;;;;;;;;5070827;28;20065;-74
2021/01/08 14:19:07;;;;;;;3.45;1.83;;;;;;;;;;5070636;28;20453;-73
2021/01/08 14:21:33;;;;;;;3.40;1.70;;;;;;;;;;5070886;28;20127;-72
2021/01/08 14:23:59;;;;;;;2.83;2.00;;;;;;;;;;5071553;28;20055;-72
2021/01/08 14:26:26;;;;;;;3.35;1.83;;;;;;;;;;5073784;28;20052;-73
2021/01/08 14:28:52;;;;;;;4.15;2.22;;;;;;;;;;5071148;28;20060;-73
2021/01/08 14:31:30;;;;;;;3.65;2.40;;;;;;;;;;5070600;28;20135;-73
2021/01/08 14:33:58;;;;;;;3.22;1.63;;;;;;;;;;5071175;28;20080;-73
2021/01/08 14:36:25;;;;;;;2.97;2.20;;;;;;;;;;5070845;28;20048;-73
2021/01/08 14:38:52;;;;;;;3.17;1.95;;;;;;;;;;5070943;28;20067;-73
2021/01/08 14:41:20;;;;;;;3.40;1.98;;;;;;;;;;5083876;28;20094;-73
2021/01/08 14:43:46;;;;;;;2.65;1.70;;;;;;;;;;5075578;28;20044;-72
2021/01/08 14:46:13;;;;;;;2.53;1.60;;;;;;;;;;5071298;28;20048;-73
2021/01/08 14:48:40;;;;;;;2.65;2.10;;;;;;;;;;5075121;28;20135;-73
2021/01/08 14:51:09;;;;;;;3.35;1.80;;;;;;;;;;5079243;28;20055;-72
2021/01/08 14:53:36;;;;;;;2.77;1.70;;;;;;;;;;5079539;28;20040;-72